createdAt,value
2018-06-08T00:00:45.046Z,5.17
2018-06-08T00:03:13.366Z,4.70
2018-06-08T00:05:41.727Z,4.57
2018-06-08T00:08:10.131Z,5.50
2018-06-08T00:10:38.392Z,3.70
2018-06-08T00:13:06.659Z,4.87
2018-06-08T00:15:34.947Z,5.13
2018-06-08T00:18:03.216Z,4.80
2018-06-08T00:20:31.458Z,5.33
2018-06-08T00:22:59.779Z,4.50
2018-06-08T00:25:28.047Z,4.40
2018-06-08T00:27:56.503Z,4.47
2018-06-08T00:30:24.947Z,4.90
2018-06-08T00:32:53.222Z,4.93
2018-06-08T00:35:21.557Z,5.20
2018-06-08T00:37:49.811Z,5.10
2018-06-08T00:40:18.181Z,4.47
2018-06-08T00:42:46.465Z,4.77
2018-06-08T00:45:14.743Z,4.57
2018-06-08T00:47:43.188Z,4.13
2018-06-08T00:50:11.677Z,4.27
2018-06-08T00:52:40.168Z,5.07
2018-06-08T00:55:08.510Z,5.27
2018-06-08T00:57:37.055Z,4.97
2018-06-08T01:00:05.139Z,4.83
2018-06-08T01:02:33.592Z,5.03
2018-06-08T01:05:02.060Z,5.27
2018-06-08T01:07:30.561Z,5.50
2018-06-08T01:09:58.890Z,4.77
2018-06-08T01:12:33.787Z,6.03
2018-06-08T01:15:02.209Z,5.00
2018-06-08T01:17:30.700Z,5.20
2018-06-08T01:19:59.062Z,4.70
2018-06-08T01:22:27.560Z,5.10
2018-06-08T01:24:56.076Z,4.57
2018-06-08T01:27:24.440Z,4.50
2018-06-08T01:29:52.852Z,4.60
2018-06-08T01:32:21.215Z,4.63
2018-06-08T01:34:49.576Z,4.07
2018-06-08T01:37:18.050Z,4.50
2018-06-08T01:39:46.521Z,4.40
2018-06-08T01:42:14.903Z,5.00
2018-06-08T01:44:43.292Z,5.30
2018-06-08T01:47:11.652Z,4.73
2018-06-08T01:49:39.996Z,4.70
2018-06-08T01:52:08.551Z,4.37
2018-06-08T01:54:36.924Z,4.83
2018-06-08T01:57:05.251Z,5.13
2018-06-08T01:59:35.278Z,5.00
2018-06-08T02:02:04.167Z,4.10
2018-06-08T02:04:32.550Z,5.37
2018-06-08T02:07:01.005Z,4.40
2018-06-08T02:09:29.406Z,4.00
2018-06-08T02:11:57.811Z,4.53
2018-06-08T02:14:25.910Z,5.77
2018-06-08T02:16:54.336Z,5.33
2018-06-08T02:19:23.117Z,6.00
2018-06-08T02:21:51.509Z,5.50
2018-06-08T02:24:19.914Z,6.47
2018-06-08T02:26:48.012Z,6.60
2018-06-08T02:29:16.429Z,5.90
2018-06-08T02:31:44.778Z,6.37
2018-06-08T02:34:13.131Z,5.33
2018-06-08T02:36:41.464Z,5.30
2018-06-08T02:39:09.822Z,5.60
2018-06-08T02:41:38.570Z,5.40
2018-06-08T02:44:07.001Z,6.27
2018-06-08T02:46:35.434Z,5.87
2018-06-08T02:49:03.927Z,5.30
2018-06-08T02:51:32.289Z,6.77
2018-06-08T02:54:00.647Z,5.67
2018-06-08T02:56:29.056Z,5.40
2018-06-08T02:58:57.431Z,5.83
2018-06-08T03:01:25.834Z,7.63
2018-06-08T03:03:54.237Z,5.70
2018-06-08T03:06:22.685Z,6.60
2018-06-08T03:08:51.059Z,6.33
2018-06-08T03:11:19.539Z,6.10
2018-06-08T03:13:47.919Z,5.87
2018-06-08T03:16:16.325Z,5.87
2018-06-08T03:18:44.717Z,6.27
2018-06-08T03:21:13.053Z,5.80
2018-06-08T03:23:41.569Z,6.27
2018-06-08T03:26:10.071Z,5.43
2018-06-08T03:28:38.395Z,5.97
2018-06-08T03:31:06.750Z,5.57
2018-06-08T03:33:35.166Z,4.97
2018-06-08T03:36:03.567Z,5.63
2018-06-08T03:38:31.903Z,5.37
2018-06-08T03:41:00.343Z,4.83
2018-06-08T03:43:28.698Z,5.27
2018-06-08T03:45:57.056Z,5.73
2018-06-08T03:48:25.486Z,5.40
2018-06-08T03:50:53.919Z,5.57
2018-06-08T03:53:22.317Z,5.30
2018-06-08T03:55:50.735Z,5.00
2018-06-08T03:58:19.142Z,6.07
2018-06-08T04:00:47.573Z,4.93
2018-06-08T04:03:15.990Z,4.87
2018-06-08T04:05:44.439Z,5.53
2018-06-08T04:08:12.990Z,6.00
2018-06-08T04:10:41.413Z,6.63
2018-06-08T04:13:09.969Z,7.20
2018-06-08T04:15:38.354Z,6.50
2018-06-08T04:18:06.792Z,6.43
2018-06-08T04:20:35.229Z,6.47
2018-06-08T04:23:03.549Z,6.80
2018-06-08T04:25:31.980Z,5.77
2018-06-08T04:28:00.426Z,6.50
2018-06-08T04:30:28.878Z,6.00
2018-06-08T04:32:57.324Z,5.67
2018-06-08T04:35:25.768Z,6.47
2018-06-08T04:37:54.139Z,7.40
2018-06-08T04:40:22.665Z,6.03
2018-06-08T04:42:51.013Z,6.80
2018-06-08T04:45:19.819Z,6.30
2018-06-08T04:47:48.293Z,6.67
2018-06-08T04:50:16.900Z,5.87
2018-06-08T04:52:45.415Z,7.20
2018-06-08T04:55:13.857Z,7.20
2018-06-08T04:57:42.376Z,6.37
2018-06-08T05:00:10.765Z,7.83
2018-06-08T05:02:39.167Z,7.27
2018-06-08T05:05:07.594Z,6.40
2018-06-08T05:07:35.978Z,9.23
2018-06-08T05:10:04.384Z,7.33
2018-06-08T05:12:32.843Z,8.63
2018-06-08T05:15:01.394Z,7.00
2018-06-08T05:17:29.763Z,8.83
2018-06-08T05:19:58.135Z,8.40
2018-06-08T05:22:26.479Z,7.70
2018-06-08T05:24:55.007Z,6.83
2018-06-08T05:27:23.431Z,7.47
2018-06-08T05:29:51.925Z,9.10
2018-06-08T05:32:20.285Z,8.10
2018-06-08T05:34:48.823Z,8.03
2018-06-08T05:37:17.502Z,8.03
2018-06-08T05:39:45.815Z,8.00
2018-06-08T05:42:14.195Z,8.73
2018-06-08T05:44:42.589Z,7.23
2018-06-08T05:47:10.971Z,11.87
2018-06-08T05:49:39.433Z,8.70
2018-06-08T05:52:07.814Z,8.43
2018-06-08T05:54:36.129Z,8.50
2018-06-08T05:57:04.666Z,7.97
2018-06-08T05:59:32.740Z,7.30
2018-06-08T06:02:01.202Z,7.17
2018-06-08T06:04:29.699Z,8.17
2018-06-08T06:06:58.174Z,8.00
2018-06-08T06:09:26.602Z,6.90
2018-06-08T06:11:55.164Z,8.00
2018-06-08T06:14:23.584Z,6.63
2018-06-08T06:16:52.123Z,7.40
2018-06-08T06:19:20.507Z,6.50
2018-06-08T06:21:49.035Z,7.20
2018-06-08T06:24:17.518Z,7.27
2018-06-08T06:26:45.886Z,8.00
2018-06-08T06:29:14.302Z,8.63
2018-06-08T06:31:42.979Z,7.63
2018-06-08T06:34:11.371Z,7.83
2018-06-08T06:36:39.804Z,8.10
2018-06-08T06:39:08.603Z,7.63
2018-06-08T06:41:37.047Z,8.37
2018-06-08T06:44:05.459Z,8.30
2018-06-08T06:46:33.891Z,7.00
2018-06-08T06:49:02.352Z,6.60
2018-06-08T06:51:30.874Z,7.20
2018-06-08T06:53:59.237Z,7.40
2018-06-08T06:56:27.649Z,5.90
2018-06-08T06:58:56.096Z,5.70
2018-06-08T07:01:24.437Z,6.67
2018-06-08T07:03:52.800Z,6.50
2018-06-08T07:06:21.328Z,5.43
2018-06-08T07:08:49.832Z,5.90
2018-06-08T07:11:18.369Z,6.10
2018-06-08T07:13:46.716Z,6.53
2018-06-08T07:16:15.130Z,6.50
2018-06-08T07:18:43.681Z,7.00
2018-06-08T07:21:12.039Z,6.47
2018-06-08T07:23:40.423Z,6.20
2018-06-08T07:26:08.837Z,5.70
2018-06-08T07:28:36.924Z,4.90
2018-06-08T07:31:05.321Z,5.60
2018-06-08T07:33:33.728Z,6.40
2018-06-08T07:36:02.228Z,5.87
2018-06-08T07:38:30.645Z,5.10
2018-06-08T07:40:59.013Z,6.03
2018-06-08T07:43:27.402Z,6.40
2018-06-08T07:45:55.895Z,6.30
2018-06-08T07:48:24.297Z,5.73
2018-06-08T07:50:52.674Z,6.40
2018-06-08T07:53:21.073Z,7.93
2018-06-08T07:55:49.291Z,6.50
2018-06-08T07:58:17.760Z,6.07
2018-06-08T08:00:46.233Z,5.20
2018-06-08T08:03:14.813Z,5.27
2018-06-08T08:05:43.195Z,6.67
2018-06-08T08:08:11.637Z,6.17
2018-06-08T08:10:40.339Z,6.57
2018-06-08T08:13:09.067Z,6.50
2018-06-08T08:15:37.459Z,5.00
2018-06-08T08:18:05.931Z,6.60
2018-06-08T08:20:34.385Z,5.77
2018-06-08T08:23:02.823Z,6.27
2018-06-08T08:25:31.217Z,6.63
2018-06-08T08:27:59.769Z,6.63
2018-06-08T08:30:28.220Z,6.20
2018-06-08T08:32:56.697Z,5.87
2018-06-08T08:35:25.090Z,4.87
2018-06-08T08:37:53.467Z,5.73
2018-06-08T08:40:21.888Z,5.63
2018-06-08T08:42:50.403Z,6.40
2018-06-08T08:45:18.883Z,5.93
2018-06-08T08:47:47.428Z,5.90
2018-06-08T08:50:15.829Z,6.27
2018-06-08T08:52:44.284Z,5.83
2018-06-08T08:55:12.700Z,6.20
2018-06-08T08:57:41.101Z,6.00
2018-06-08T09:00:09.540Z,5.40
2018-06-08T09:02:37.959Z,6.20
2018-06-08T09:05:06.375Z,5.30
2018-06-08T09:07:34.785Z,5.20
2018-06-08T09:10:03.254Z,5.87
2018-06-08T09:12:31.682Z,4.50
2018-06-08T09:15:00.124Z,5.80
2018-06-08T09:17:28.545Z,6.27
2018-06-08T09:19:57.119Z,6.00
2018-06-08T09:22:25.582Z,6.10
2018-06-08T09:24:53.958Z,6.50
2018-06-08T09:27:22.363Z,6.10
2018-06-08T09:29:50.743Z,6.03
2018-06-08T09:32:19.112Z,6.17
2018-06-08T09:34:47.532Z,6.23
2018-06-08T09:37:16.131Z,5.70
2018-06-08T09:39:44.539Z,6.10
2018-06-08T09:42:13.097Z,6.90
2018-06-08T09:44:41.570Z,6.30
2018-06-08T09:47:09.965Z,5.03
2018-06-08T09:49:38.523Z,6.13
2018-06-08T09:52:07.065Z,6.13
2018-06-08T09:54:35.509Z,5.60
2018-06-08T09:57:03.957Z,6.70
2018-06-08T09:59:32.395Z,5.93
2018-06-08T10:02:00.757Z,5.20
2018-06-08T10:04:29.207Z,5.50
2018-06-08T10:06:57.852Z,4.80
2018-06-08T10:09:26.291Z,5.20
2018-06-08T10:11:54.726Z,4.40
2018-06-08T10:14:22.814Z,4.50
2018-06-08T10:16:51.235Z,4.27
2018-06-08T10:19:19.710Z,5.07
2018-06-08T10:21:48.154Z,3.53
2018-06-08T10:24:16.566Z,3.90
2018-06-08T10:26:44.968Z,4.37
2018-06-08T10:29:13.354Z,3.60
2018-06-08T10:31:41.724Z,4.30
2018-06-08T10:34:10.104Z,3.50
2018-06-08T10:36:38.477Z,3.40
2018-06-08T10:39:07.174Z,3.40
2018-06-08T10:41:35.737Z,4.07
2018-06-08T10:44:04.104Z,4.17
2018-06-08T10:46:32.481Z,3.73
2018-06-08T10:49:00.896Z,3.13
2018-06-08T10:51:29.237Z,3.20
2018-06-08T10:53:57.621Z,5.10
2018-06-08T10:56:26.169Z,2.90
2018-06-08T10:58:54.631Z,3.17
2018-06-08T11:01:22.991Z,3.50
2018-06-08T11:03:51.695Z,3.40
2018-06-08T11:06:20.097Z,3.20
2018-06-08T11:08:48.573Z,3.00
2018-06-08T11:11:16.951Z,4.72
2018-06-08T11:13:45.373Z,4.50
2018-06-08T11:16:13.814Z,3.37
2018-06-08T11:18:42.284Z,3.40
2018-06-08T11:21:10.669Z,4.23
2018-06-08T11:23:39.201Z,3.53
2018-06-08T11:26:07.559Z,3.53
2018-06-08T11:28:35.924Z,3.53
2018-06-08T11:31:04.340Z,4.13
2018-06-08T11:33:32.860Z,3.37
2018-06-08T11:36:01.270Z,3.60
2018-06-08T11:38:29.676Z,3.23
2018-06-08T11:40:58.076Z,3.37
2018-06-08T11:43:26.475Z,4.00
2018-06-08T11:45:54.909Z,2.93
2018-06-08T11:48:23.301Z,4.33
2018-06-08T11:50:51.714Z,3.20
2018-06-08T11:53:20.245Z,3.73
2018-06-08T11:55:48.868Z,4.70
2018-06-08T11:58:17.276Z,4.10
2018-06-08T12:00:45.700Z,3.97
2018-06-08T12:03:14.261Z,4.47
2018-06-08T12:05:42.636Z,3.67
2018-06-08T12:08:11.086Z,4.17
2018-06-08T12:10:39.539Z,4.30
2018-06-08T12:13:08.260Z,3.70
2018-06-08T12:15:36.669Z,3.40
2018-06-08T12:18:05.132Z,3.47
2018-06-08T12:20:33.544Z,3.00
2018-06-08T12:23:02.111Z,3.23
2018-06-08T12:25:30.496Z,2.90
2018-06-08T12:27:58.980Z,3.67
2018-06-08T12:30:27.408Z,4.40
2018-06-08T12:32:55.768Z,3.70
2018-06-08T12:35:24.181Z,3.00
2018-06-08T12:37:52.562Z,3.50
2018-06-08T12:40:20.928Z,3.97
2018-06-08T12:42:49.294Z,3.27
2018-06-08T12:45:17.737Z,2.90
2018-06-08T12:47:46.244Z,3.63
2018-06-08T12:50:14.663Z,4.30
2018-06-08T12:52:43.050Z,3.40
2018-06-08T12:55:11.525Z,3.23
2018-06-08T12:57:40.048Z,3.93
2018-06-08T13:00:08.580Z,3.30
2018-06-08T13:02:36.992Z,3.87
2018-06-08T13:05:05.708Z,4.13
2018-06-08T13:07:34.149Z,3.23
2018-06-08T13:10:02.617Z,3.20
2018-06-08T13:12:31.108Z,4.30
2018-06-08T13:14:59.583Z,3.20
2018-06-08T13:17:28.066Z,3.57
2018-06-08T13:19:56.499Z,3.70
2018-06-08T13:22:24.920Z,3.70
2018-06-08T13:24:53.377Z,3.90
2018-06-08T13:27:21.834Z,3.43
2018-06-08T13:29:50.280Z,3.40
2018-06-08T13:32:18.689Z,3.73
2018-06-08T13:34:47.087Z,3.60
2018-06-08T13:37:15.533Z,3.43
2018-06-08T13:39:43.938Z,4.10
2018-06-08T13:42:12.092Z,3.77
2018-06-08T13:44:40.394Z,4.67
2018-06-08T13:47:08.962Z,3.77
2018-06-08T13:49:37.346Z,3.13
2018-06-08T13:52:06.086Z,4.47
2018-06-08T13:54:34.516Z,3.90
2018-06-08T13:57:02.912Z,3.90
2018-06-08T13:59:31.325Z,3.87
2018-06-08T14:01:59.794Z,3.40
2018-06-08T14:04:28.242Z,3.80
2018-06-08T14:06:56.719Z,3.67
2018-06-08T14:09:25.110Z,3.53
2018-06-08T14:11:53.627Z,3.47
2018-06-08T14:14:22.182Z,3.40
2018-06-08T14:16:50.643Z,4.20
2018-06-08T14:19:19.026Z,3.63
2018-06-08T14:21:47.430Z,4.60
2018-06-08T14:24:15.875Z,3.97
2018-06-08T14:26:44.289Z,3.83
2018-06-08T14:29:12.677Z,3.70
2018-06-08T14:31:41.042Z,4.37
2018-06-08T14:34:09.483Z,2.97
2018-06-08T14:36:37.926Z,3.80
2018-06-08T14:39:07.373Z,4.10
2018-06-08T14:41:36.148Z,3.70
2018-06-08T14:44:04.666Z,4.30
2018-06-08T14:46:33.105Z,4.70
2018-06-08T14:49:01.529Z,4.23
2018-06-08T14:51:29.952Z,3.10
2018-06-08T14:54:04.878Z,3.30
2018-06-08T14:56:33.384Z,3.60
2018-06-08T14:59:01.947Z,3.13
2018-06-08T15:01:30.314Z,3.20
2018-06-08T15:03:58.885Z,5.73
2018-06-08T15:06:27.340Z,6.80
2018-06-08T15:08:55.819Z,6.10
2018-06-08T15:11:24.212Z,6.53
2018-06-08T15:13:52.693Z,3.57
2018-06-08T15:16:21.171Z,4.40
2018-06-08T15:18:49.557Z,4.27
2018-06-08T15:21:18.277Z,3.83
2018-06-08T15:23:46.777Z,4.80
2018-06-08T15:26:15.272Z,3.90
2018-06-08T15:28:43.657Z,3.83
2018-06-08T15:31:12.091Z,3.50
2018-06-08T15:33:40.609Z,4.00
2018-06-08T15:36:09.043Z,2.87
2018-06-08T15:38:37.481Z,4.17
2018-06-08T15:41:05.872Z,3.53
2018-06-08T15:43:34.315Z,2.50
2018-06-08T15:46:02.850Z,3.10
2018-06-08T15:48:31.375Z,3.27
2018-06-08T15:50:59.771Z,3.00
2018-06-08T15:53:28.222Z,3.17
2018-06-08T15:55:56.574Z,3.17
2018-06-08T15:58:25.027Z,3.57
2018-06-08T16:00:53.511Z,3.20
2018-06-08T16:03:21.983Z,2.70
2018-06-08T16:05:50.391Z,2.73
2018-06-08T16:08:18.730Z,2.77
2018-06-08T16:10:47.074Z,3.00
2018-06-08T16:13:15.634Z,3.27
2018-06-08T16:15:44.166Z,3.50
2018-06-08T16:18:12.541Z,3.17
2018-06-08T16:20:40.938Z,3.23
2018-06-08T16:23:09.367Z,2.70
2018-06-08T16:25:37.779Z,2.93
2018-06-08T16:28:06.223Z,2.70
2018-06-08T16:30:34.799Z,3.20
2018-06-08T16:33:03.147Z,2.30
2018-06-08T16:35:31.519Z,2.87
2018-06-08T16:37:59.970Z,2.83
2018-06-08T16:40:28.413Z,3.17
2018-06-08T16:42:56.818Z,2.93
2018-06-08T16:45:25.234Z,3.30
2018-06-08T16:47:53.661Z,2.53
2018-06-08T16:50:22.105Z,2.80
2018-06-08T16:52:50.558Z,2.80
2018-06-08T16:55:19.037Z,2.90
2018-06-08T16:57:47.236Z,2.73
2018-06-08T17:00:15.631Z,3.17
2018-06-08T17:02:44.061Z,2.93
2018-06-08T17:05:12.413Z,4.40
2018-06-08T17:07:40.826Z,2.67
2018-06-08T17:10:09.428Z,3.47
2018-06-08T17:12:37.841Z,2.40
2018-06-08T17:15:06.257Z,3.37
2018-06-08T17:17:34.709Z,2.50
2018-06-08T17:20:03.176Z,2.73
2018-06-08T17:22:31.664Z,2.73
2018-06-08T17:25:00.045Z,3.00
2018-06-08T17:27:28.635Z,3.50
2018-06-08T17:29:57.099Z,3.27
2018-06-08T17:32:25.537Z,2.97
2018-06-08T17:34:54.679Z,2.40
2018-06-08T17:37:25.029Z,3.10
2018-06-08T17:39:54.063Z,3.40
2018-06-08T17:42:23.162Z,2.83
2018-06-08T17:44:51.902Z,2.67
2018-06-08T17:47:20.817Z,2.90
2018-06-08T17:49:49.260Z,2.83
2018-06-08T17:52:17.620Z,4.30
2018-06-08T17:54:46.029Z,2.97
2018-06-08T17:57:14.255Z,2.50
2018-06-08T17:59:42.683Z,3.40
2018-06-08T18:02:11.085Z,2.93
2018-06-08T18:04:39.641Z,3.43
2018-06-08T18:07:08.143Z,2.90
2018-06-08T18:09:36.611Z,3.00
2018-06-08T18:12:05.115Z,2.57
2018-06-08T18:14:33.503Z,3.30
2018-06-08T18:17:01.961Z,3.70
2018-06-08T18:19:30.405Z,3.67
2018-06-08T18:21:58.893Z,3.23
2018-06-08T18:24:27.321Z,2.67
2018-06-08T18:26:55.781Z,4.60
2018-06-08T18:29:24.141Z,3.60
2018-06-08T18:31:52.669Z,3.33
2018-06-08T18:34:22.098Z,3.10
2018-06-08T18:36:50.548Z,3.00
2018-06-08T18:39:18.976Z,3.30
2018-06-08T18:41:47.397Z,3.17
2018-06-08T18:44:15.815Z,3.33
2018-06-08T18:46:44.298Z,2.70
2018-06-08T18:49:12.715Z,3.07
2018-06-08T18:51:41.094Z,3.40
2018-06-08T18:54:09.467Z,2.90
2018-06-08T18:56:37.898Z,2.83
2018-06-08T18:59:06.428Z,2.70
2018-06-08T19:01:34.821Z,2.40
2018-06-08T19:04:03.267Z,3.30
2018-06-08T19:06:31.635Z,3.20
2018-06-08T19:09:00.166Z,2.60
2018-06-08T19:11:28.590Z,2.60
2018-06-08T19:13:56.998Z,2.83
2018-06-08T19:16:25.583Z,3.00
2018-06-08T19:18:53.943Z,2.70
2018-06-08T19:21:22.301Z,3.10
2018-06-08T19:23:50.651Z,2.53
2018-06-08T19:26:19.155Z,2.90
2018-06-08T19:28:47.549Z,3.00
2018-06-08T19:31:15.945Z,3.00
2018-06-08T19:33:44.446Z,3.07
2018-06-08T19:36:12.832Z,2.83
2018-06-08T19:38:41.231Z,2.53
2018-06-08T19:41:09.689Z,3.20
2018-06-08T19:43:38.055Z,2.80
2018-06-08T19:46:06.537Z,2.93
2018-06-08T19:48:35.010Z,3.37
2018-06-08T19:51:03.428Z,3.87
2018-06-08T19:53:31.825Z,3.63
2018-06-08T19:56:00.293Z,3.07
2018-06-08T19:58:28.755Z,2.80
2018-06-08T20:00:57.321Z,3.60
2018-06-08T20:03:25.745Z,3.20
2018-06-08T20:05:54.125Z,2.90
2018-06-08T20:08:22.514Z,2.57
2018-06-08T20:10:50.929Z,3.83
2018-06-08T20:13:19.655Z,3.80
2018-06-08T20:15:48.117Z,3.70
2018-06-08T20:18:16.646Z,3.40
2018-06-08T20:20:45.370Z,3.90
2018-06-08T20:23:20.319Z,4.77
2018-06-08T20:25:48.701Z,4.40
2018-06-08T20:28:17.187Z,5.03
2018-06-08T20:30:45.519Z,7.00
2018-06-08T20:33:14.059Z,5.03
2018-06-08T20:35:42.557Z,3.97
2018-06-08T20:38:11.059Z,5.67
2018-06-08T20:40:39.595Z,4.53
2018-06-08T20:43:07.968Z,4.80
2018-06-08T20:45:36.563Z,6.30
2018-06-08T20:48:05.117Z,4.67
2018-06-08T20:50:33.285Z,4.10
2018-06-08T20:53:01.691Z,4.83
2018-06-08T20:55:30.116Z,5.27
2018-06-08T20:58:01.798Z,4.37
2018-06-08T21:00:30.154Z,4.73
2018-06-08T21:02:58.645Z,4.57
2018-06-08T21:05:27.057Z,4.10
2018-06-08T21:07:55.570Z,4.77
2018-06-08T21:10:24.021Z,5.03
2018-06-08T21:12:52.427Z,4.57
2018-06-08T21:15:20.919Z,5.20
2018-06-08T21:17:49.291Z,5.33
2018-06-08T21:20:17.786Z,4.90
2018-06-08T21:22:46.056Z,4.83
2018-06-08T21:25:14.502Z,5.73
2018-06-08T21:27:43.735Z,5.77
2018-06-08T21:30:12.133Z,4.40
2018-06-08T21:32:40.371Z,5.20
2018-06-08T21:35:08.765Z,6.00
2018-06-08T21:37:37.314Z,5.90
2018-06-08T21:40:05.801Z,5.20
2018-06-08T21:42:34.202Z,5.20
2018-06-08T21:45:02.628Z,5.17
2018-06-08T21:47:31.040Z,4.50
2018-06-08T21:49:59.411Z,5.97
2018-06-08T21:52:27.875Z,5.33
2018-06-08T21:54:56.521Z,6.83
2018-06-08T21:57:24.640Z,4.90
2018-06-08T21:59:53.013Z,4.60
2018-06-08T22:02:21.431Z,5.27
2018-06-08T22:04:49.840Z,4.87
2018-06-08T22:07:18.283Z,4.90
2018-06-08T22:09:46.650Z,5.30
2018-06-08T22:12:14.977Z,5.53
2018-06-08T22:14:43.403Z,4.97
2018-06-08T22:17:11.923Z,5.10
2018-06-08T22:19:40.029Z,5.63
2018-06-08T22:22:08.511Z,5.47
2018-06-08T22:24:36.892Z,5.30
2018-06-08T22:27:05.353Z,5.57
2018-06-08T22:29:33.838Z,5.83
2018-06-08T22:32:02.193Z,5.30
2018-06-08T22:34:30.603Z,4.30
2018-06-08T22:36:59.076Z,5.03
2018-06-08T22:39:27.463Z,4.40
2018-06-08T22:41:55.975Z,4.80
2018-06-08T22:44:32.141Z,5.50
2018-06-08T22:47:00.804Z,5.70
2018-06-08T22:49:29.182Z,4.80
2018-06-08T22:51:57.678Z,4.27
2018-06-08T22:54:26.091Z,4.57
2018-06-08T22:56:54.535Z,5.73
2018-06-08T22:59:22.912Z,4.97
2018-06-08T23:01:51.283Z,4.90
2018-06-08T23:04:19.661Z,5.80
2018-06-08T23:06:48.027Z,5.43
2018-06-08T23:09:16.481Z,5.63
2018-06-08T23:11:44.903Z,4.80
2018-06-08T23:14:13.511Z,5.63
2018-06-08T23:16:41.851Z,5.47
2018-06-08T23:19:10.273Z,5.40
2018-06-08T23:21:38.795Z,5.17
2018-06-08T23:24:07.197Z,5.47
2018-06-08T23:26:35.681Z,4.77
2018-06-08T23:29:04.215Z,5.97
2018-06-08T23:31:32.611Z,4.83
2018-06-08T23:34:00.966Z,4.70
2018-06-08T23:36:29.367Z,5.00
2018-06-08T23:38:57.756Z,4.67
2018-06-08T23:41:26.184Z,6.77
2018-06-08T23:43:54.643Z,5.30
2018-06-08T23:46:23.058Z,5.17
2018-06-08T23:48:51.460Z,4.87
2018-06-08T23:51:19.829Z,5.47
2018-06-08T23:53:48.297Z,5.70
2018-06-08T23:56:16.679Z,5.63
2018-06-08T23:58:45.079Z,4.87
